sensor_id;sensor_type;location;lat;lon;timestamp;pressure;altitude;pressure_sealevel;temperature;humidity
58919;BME280;44704;50.122;19.932;2022-12-10T00:01:24;96990.84;;;0.16;98.48
58919;BME280;44704;50.122;19.932;2022-12-10T00:03:52;96989.27;;;0.16;98.46
58919;BME280;44704;50.122;19.932;2022-12-10T00:06:21;96996.90;;;0.15;98.25
58919;BME280;44704;50.122;19.932;2022-12-10T00:08:49;96999.71;;;0.13;98.37
58919;BME280;44704;50.122;19.932;2022-12-10T00:11:17;96998.86;;;0.11;98.37
58919;BME280;44704;50.122;19.932;2022-12-10T00:13:45;96999.16;;;0.09;98.39
58919;BME280;44704;50.122;19.932;2022-12-10T00:16:14;97001.44;;;0.08;98.64
58919;BME280;44704;50.122;19.932;2022-12-10T00:18:42;97010.17;;;0.07;98.92
58919;BME280;44704;50.122;19.932;2022-12-10T00:21:13;97009.30;;;0.07;98.87
58919;BME280;44704;50.122;19.932;2022-12-10T00:23:40;96999.98;;;0.08;99.08
58919;BME280;44704;50.122;19.932;2022-12-10T00:26:10;97003.14;;;0.10;99.08
58919;BME280;44704;50.122;19.932;2022-12-10T00:28:39;97000.09;;;0.11;99.06
58919;BME280;44704;50.122;19.932;2022-12-10T00:31:14;97000.58;;;0.13;98.86
58919;BME280;44704;50.122;19.932;2022-12-10T00:33:42;97006.13;;;0.12;98.93
58919;BME280;44704;50.122;19.932;2022-12-10T00:36:16;97010.45;;;0.12;98.91
58919;BME280;44704;50.122;19.932;2022-12-10T00:38:43;97009.02;;;0.13;98.96
58919;BME280;44704;50.122;19.932;2022-12-10T00:41:12;97010.88;;;0.13;98.94
58919;BME280;44704;50.122;19.932;2022-12-10T00:43:40;97014.70;;;0.14;98.96
58919;BME280;44704;50.122;19.932;2022-12-10T00:46:08;97011.90;;;0.14;98.84
58919;BME280;44704;50.122;19.932;2022-12-10T00:48:35;97015.27;;;0.14;98.96
58919;BME280;44704;50.122;19.932;2022-12-10T00:51:14;97012.91;;;0.15;99.30
58919;BME280;44704;50.122;19.932;2022-12-10T00:53:42;97008.59;;;0.15;99.05
58919;BME280;44704;50.122;19.932;2022-12-10T00:56:10;97008.80;;;0.15;99.07
58919;BME280;44704;50.122;19.932;2022-12-10T00:58:39;97009.38;;;0.15;98.84
58919;BME280;44704;50.122;19.932;2022-12-10T01:01:13;97012.02;;;0.15;98.97
58919;BME280;44704;50.122;19.932;2022-12-10T01:03:42;97010.98;;;0.16;99.07
58919;BME280;44704;50.122;19.932;2022-12-10T01:06:15;97009.86;;;0.17;99.11
58919;BME280;44704;50.122;19.932;2022-12-10T01:08:44;97009.94;;;0.17;99.13
58919;BME280;44704;50.122;19.932;2022-12-10T01:11:14;97010.65;;;0.17;98.94
58919;BME280;44704;50.122;19.932;2022-12-10T01:13:42;97007.88;;;0.20;99.02
58919;BME280;44704;50.122;19.932;2022-12-10T01:16:11;97008.63;;;0.20;99.01
58919;BME280;44704;50.122;19.932;2022-12-10T01:18:40;97010.31;;;0.17;98.58
58919;BME280;44704;50.122;19.932;2022-12-10T01:21:12;97012.40;;;0.17;98.83
58919;BME280;44704;50.122;19.932;2022-12-10T01:23:43;97014.69;;;0.17;98.71
58919;BME280;44704;50.122;19.932;2022-12-10T01:26:14;97022.30;;;0.15;98.56
58919;BME280;44704;50.122;19.932;2022-12-10T01:28:42;97029.92;;;0.16;98.82
58919;BME280;44704;50.122;19.932;2022-12-10T01:31:15;97024.15;;;0.16;98.90
58919;BME280;44704;50.122;19.932;2022-12-10T01:33:42;97030.23;;;0.16;98.78
58919;BME280;44704;50.122;19.932;2022-12-10T01:36:15;97037.58;;;0.17;99.19
58919;BME280;44704;50.122;19.932;2022-12-10T01:38:43;97041.67;;;0.20;99.22
58919;BME280;44704;50.122;19.932;2022-12-10T01:41:38;97044.11;;;0.22;99.21
58919;BME280;44704;50.122;19.932;2022-12-10T01:46:39;97045.73;;;0.25;98.82
58919;BME280;44704;50.122;19.932;2022-12-10T01:49:14;97038.48;;;0.25;98.90
58919;BME280;44704;50.122;19.932;2022-12-10T01:51:43;97036.17;;;0.25;98.78
58919;BME280;44704;50.122;19.932;2022-12-10T01:54:12;97035.89;;;0.26;98.94
58919;BME280;44704;50.122;19.932;2022-12-10T01:56:44;97034.67;;;0.27;98.93
58919;BME280;44704;50.122;19.932;2022-12-10T01:59:12;97043.30;;;0.27;98.96
58919;BME280;44704;50.122;19.932;2022-12-10T02:01:52;97046.11;;;0.24;98.48
58919;BME280;44704;50.122;19.932;2022-12-10T02:04:30;97050.92;;;0.24;98.61
58919;BME280;44704;50.122;19.932;2022-12-10T02:07:08;97052.29;;;0.24;98.55
58919;BME280;44704;50.122;19.932;2022-12-10T02:12:40;97052.04;;;0.24;98.99
58919;BME280;44704;50.122;19.932;2022-12-10T02:15:17;97049.71;;;0.27;98.99
58919;BME280;44704;50.122;19.932;2022-12-10T02:17:51;97057.95;;;0.28;98.87
58919;BME280;44704;50.122;19.932;2022-12-10T02:20:23;97057.75;;;0.27;98.63
58919;BME280;44704;50.122;19.932;2022-12-10T02:23:01;97057.55;;;0.27;98.72
58919;BME280;44704;50.122;19.932;2022-12-10T02:25:39;97051.31;;;0.28;98.75
58919;BME280;44704;50.122;19.932;2022-12-10T02:28:19;97047.70;;;0.28;98.55
58919;BME280;44704;50.122;19.932;2022-12-10T02:30:50;97043.91;;;0.27;98.66
58919;BME280;44704;50.122;19.932;2022-12-10T02:33:17;97049.56;;;0.27;98.76
58919;BME280;44704;50.122;19.932;2022-12-10T02:35:47;97052.30;;;0.24;98.44
58919;BME280;44704;50.122;19.932;2022-12-10T02:38:22;97049.38;;;0.21;98.72
58919;BME280;44704;50.122;19.932;2022-12-10T02:40:53;97052.35;;;0.21;98.91
58919;BME280;44704;50.122;19.932;2022-12-10T02:43:23;97055.02;;;0.21;98.71
58919;BME280;44704;50.122;19.932;2022-12-10T02:45:51;97057.70;;;0.21;98.79
58919;BME280;44704;50.122;19.932;2022-12-10T02:48:19;97064.75;;;0.20;98.83
58919;BME280;44704;50.122;19.932;2022-12-10T02:50:47;97072.37;;;0.21;98.73
58919;BME280;44704;50.122;19.932;2022-12-10T02:53:14;97073.98;;;0.21;98.91
58919;BME280;44704;50.122;19.932;2022-12-10T02:56:22;97074.02;;;0.20;98.92
58919;BME280;44704;50.122;19.932;2022-12-10T02:59:16;97070.05;;;0.22;99.02
58919;BME280;44704;50.122;19.932;2022-12-10T03:05:18;97080.55;;;0.23;98.78
58919;BME280;44704;50.122;19.932;2022-12-10T03:07:58;97079.84;;;0.24;99.01
58919;BME280;44704;50.122;19.932;2022-12-10T03:13:15;97084.52;;;0.28;98.97
58919;BME280;44704;50.122;19.932;2022-12-10T03:15:44;97078.34;;;0.28;98.77
58919;BME280;44704;50.122;19.932;2022-12-10T03:18:13;97068.87;;;0.28;98.66
58919;BME280;44704;50.122;19.932;2022-12-10T03:20:44;97076.20;;;0.28;99.05
58919;BME280;44704;50.122;19.932;2022-12-10T03:23:15;97082.26;;;0.28;98.83
58919;BME280;44704;50.122;19.932;2022-12-10T03:25:44;97081.81;;;0.27;98.99
58919;BME280;44704;50.122;19.932;2022-12-10T03:28:13;97086.79;;;0.27;98.91
58919;BME280;44704;50.122;19.932;2022-12-10T03:30:41;97079.79;;;0.27;98.90
58919;BME280;44704;50.122;19.932;2022-12-10T03:33:10;97076.79;;;0.27;99.02
58919;BME280;44704;50.122;19.932;2022-12-10T03:35:39;97075.37;;;0.28;99.11
58919;BME280;44704;50.122;19.932;2022-12-10T03:38:07;97085.13;;;0.29;98.93
58919;BME280;44704;50.122;19.932;2022-12-10T03:40:35;97091.31;;;0.28;98.73
58919;BME280;44704;50.122;19.932;2022-12-10T03:43:02;97089.27;;;0.26;98.77
58919;BME280;44704;50.122;19.932;2022-12-10T03:45:29;97092.06;;;0.26;99.09
58919;BME280;44704;50.122;19.932;2022-12-10T03:47:56;97089.38;;;0.28;98.99
58919;BME280;44704;50.122;19.932;2022-12-10T03:50:23;97086.94;;;0.30;99.37
58919;BME280;44704;50.122;19.932;2022-12-10T03:52:50;97082.80;;;0.33;99.26
58919;BME280;44704;50.122;19.932;2022-12-10T03:55:16;97080.45;;;0.34;99.47
58919;BME280;44704;50.122;19.932;2022-12-10T03:57:43;97086.81;;;0.37;99.55
58919;BME280;44704;50.122;19.932;2022-12-10T04:00:11;97097.45;;;0.38;99.04
58919;BME280;44704;50.122;19.932;2022-12-10T04:02:41;97106.45;;;0.34;98.65
58919;BME280;44704;50.122;19.932;2022-12-10T04:05:08;97107.27;;;0.34;98.91
58919;BME280;44704;50.122;19.932;2022-12-10T04:07:35;97110.57;;;0.33;98.71
58919;BME280;44704;50.122;19.932;2022-12-10T04:10:03;97113.86;;;0.32;98.85
58919;BME280;44704;50.122;19.932;2022-12-10T04:12:30;97123.71;;;0.31;98.62
58919;BME280;44704;50.122;19.932;2022-12-10T04:15:00;97133.24;;;0.29;98.85
58919;BME280;44704;50.122;19.932;2022-12-10T04:17:48;97142.22;;;0.30;99.20
58919;BME280;44704;50.122;19.932;2022-12-10T04:20:15;97147.92;;;0.31;99.34
58919;BME280;44704;50.122;19.932;2022-12-10T04:23:01;97149.09;;;0.34;99.49
58919;BME280;44704;50.122;19.932;2022-12-10T04:25:47;97153.16;;;0.32;99.08
58919;BME280;44704;50.122;19.932;2022-12-10T04:28:32;97157.24;;;0.31;99.16
58919;BME280;44704;50.122;19.932;2022-12-10T04:30:59;97157.17;;;0.30;99.23
58919;BME280;44704;50.122;19.932;2022-12-10T04:33:26;97149.45;;;0.29;99.00
58919;BME280;44704;50.122;19.932;2022-12-10T04:35:53;97139.41;;;0.29;99.04
58919;BME280;44704;50.122;19.932;2022-12-10T04:38:20;97134.15;;;0.29;99.15
58919;BME280;44704;50.122;19.932;2022-12-10T04:40:47;97133.48;;;0.30;99.32
58919;BME280;44704;50.122;19.932;2022-12-10T04:43:14;97136.70;;;0.30;99.09
58919;BME280;44704;50.122;19.932;2022-12-10T04:45:42;97133.65;;;0.30;99.14
58919;BME280;44704;50.122;19.932;2022-12-10T04:48:08;97138.61;;;0.27;98.72
58919;BME280;44704;50.122;19.932;2022-12-10T04:50:35;97143.69;;;0.24;98.62
58919;BME280;44704;50.122;19.932;2022-12-10T04:53:02;97155.27;;;0.18;98.43
58919;BME280;44704;50.122;19.932;2022-12-10T04:55:29;97155.16;;;0.15;98.82
58919;BME280;44704;50.122;19.932;2022-12-10T04:57:56;97155.36;;;0.12;99.14
58919;BME280;44704;50.122;19.932;2022-12-10T05:00:23;97160.15;;;0.11;99.32
58919;BME280;44704;50.122;19.932;2022-12-10T05:02:51;97152.13;;;0.10;99.28
58919;BME280;44704;50.122;19.932;2022-12-10T05:05:18;97150.02;;;0.10;99.34
58919;BME280;44704;50.122;19.932;2022-12-10T05:07:45;97154.27;;;0.11;99.68
58919;BME280;44704;50.122;19.932;2022-12-10T05:10:12;97161.14;;;0.12;99.40
58919;BME280;44704;50.122;19.932;2022-12-10T05:12:38;97167.16;;;0.08;99.07
58919;BME280;44704;50.122;19.932;2022-12-10T05:15:06;97168.36;;;0.06;99.39
58919;BME280;44704;50.122;19.932;2022-12-10T05:17:33;97165.69;;;0.06;99.47
58919;BME280;44704;50.122;19.932;2022-12-10T05:20:00;97156.63;;;0.06;99.44
58919;BME280;44704;50.122;19.932;2022-12-10T05:22:27;97150.54;;;0.05;99.56
58919;BME280;44704;50.122;19.932;2022-12-10T05:25:12;97163.06;;;0.03;99.51
58919;BME280;44704;50.122;19.932;2022-12-10T05:27:39;97177.30;;;0.03;99.56
58919;BME280;44704;50.122;19.932;2022-12-10T05:30:07;97178.05;;;0.02;99.57
58919;BME280;44704;50.122;19.932;2022-12-10T05:32:34;97186.25;;;0.03;99.95
58919;BME280;44704;50.122;19.932;2022-12-10T05:35:01;97194.36;;;0.04;99.89
58919;BME280;44704;50.122;19.932;2022-12-10T05:37:28;97201.73;;;0.04;99.84
58919;BME280;44704;50.122;19.932;2022-12-10T05:39:55;97212.67;;;0.06;99.86
58919;BME280;44704;50.122;19.932;2022-12-10T05:42:22;97219.73;;;0.10;100.00
58919;BME280;44704;50.122;19.932;2022-12-10T05:44:48;97227.47;;;0.15;100.00
58919;BME280;44704;50.122;19.932;2022-12-10T05:47:15;97231.39;;;0.19;100.00
58919;BME280;44704;50.122;19.932;2022-12-10T05:49:42;97228.78;;;0.24;100.00
58919;BME280;44704;50.122;19.932;2022-12-10T05:52:09;97218.15;;;0.27;100.00
58919;BME280;44704;50.122;19.932;2022-12-10T05:54:36;97215.41;;;0.30;100.00
58919;BME280;44704;50.122;19.932;2022-12-10T05:57:03;97220.39;;;0.33;99.98
58919;BME280;44704;50.122;19.932;2022-12-10T05:59:29;97224.52;;;0.37;100.00
58919;BME280;44704;50.122;19.932;2022-12-10T06:01:56;97217.48;;;0.40;100.00
58919;BME280;44704;50.122;19.932;2022-12-10T06:04:23;97206.11;;;0.42;99.98
58919;BME280;44704;50.122;19.932;2022-12-10T06:06:50;97199.48;;;0.45;100.00
58919;BME280;44704;50.122;19.932;2022-12-10T06:09:17;97193.33;;;0.44;99.46
58919;BME280;44704;50.122;19.932;2022-12-10T06:11:44;97191.00;;;0.40;99.05
58919;BME280;44704;50.122;19.932;2022-12-10T06:14:11;97191.71;;;0.36;98.88
58919;BME280;44704;50.122;19.932;2022-12-10T06:16:38;97203.20;;;0.33;98.82
58919;BME280;44704;50.122;19.932;2022-12-10T06:19:05;97203.48;;;0.30;98.76
58919;BME280;44704;50.122;19.932;2022-12-10T06:21:32;97202.63;;;0.27;98.81
58919;BME280;44704;50.122;19.932;2022-12-10T06:24:01;97199.61;;;0.27;99.14
58919;BME280;44704;50.122;19.932;2022-12-10T06:26:28;97190.34;;;0.28;99.49
58919;BME280;44704;50.122;19.932;2022-12-10T06:28:57;97192.80;;;0.30;99.51
58919;BME280;44704;50.122;19.932;2022-12-10T06:31:24;97191.93;;;0.31;99.59
58919;BME280;44704;50.122;19.932;2022-12-10T06:33:51;97193.78;;;0.32;99.36
58919;BME280;44704;50.122;19.932;2022-12-10T06:36:19;97201.44;;;0.33;99.40
58919;BME280;44704;50.122;19.932;2022-12-10T06:38:47;97209.06;;;0.35;99.38
58919;BME280;44704;50.122;19.932;2022-12-10T06:41:16;97212.02;;;0.37;99.39
58919;BME280;44704;50.122;19.932;2022-12-10T06:43:43;97216.38;;;0.37;99.33
58919;BME280;44704;50.122;19.932;2022-12-10T06:46:13;97226.27;;;0.39;99.33
58919;BME280;44704;50.122;19.932;2022-12-10T06:48:41;97230.30;;;0.40;99.06
58919;BME280;44704;50.122;19.932;2022-12-10T06:51:09;97235.94;;;0.42;98.90
58919;BME280;44704;50.122;19.932;2022-12-10T06:53:37;97243.98;;;0.42;98.88
58919;BME280;44704;50.122;19.932;2022-12-10T06:56:05;97249.21;;;0.40;98.66
58919;BME280;44704;50.122;19.932;2022-12-10T06:58:33;97250.08;;;0.41;98.90
58919;BME280;44704;50.122;19.932;2022-12-10T07:01:06;97253.25;;;0.42;99.34
58919;BME280;44704;50.122;19.932;2022-12-10T07:03:33;97260.33;;;0.43;98.82
58919;BME280;44704;50.122;19.932;2022-12-10T07:06:01;97265.15;;;0.41;98.71
58919;BME280;44704;50.122;19.932;2022-12-10T07:08:28;97268.53;;;0.40;98.63
58919;BME280;44704;50.122;19.932;2022-12-10T07:10:56;97280.86;;;0.38;98.50
58919;BME280;44704;50.122;19.932;2022-12-10T07:13:23;97288.63;;;0.41;98.64
58919;BME280;44704;50.122;19.932;2022-12-10T07:15:51;97293.21;;;0.42;98.84
58919;BME280;44704;50.122;19.932;2022-12-10T07:18:18;97283.27;;;0.47;99.36
58919;BME280;44704;50.122;19.932;2022-12-10T07:20:45;97280.66;;;0.52;99.35
58919;BME280;44704;50.122;19.932;2022-12-10T07:23:12;97281.92;;;0.53;99.06
58919;BME280;44704;50.122;19.932;2022-12-10T07:25:39;97279.87;;;0.53;98.70
58919;BME280;44704;50.122;19.932;2022-12-10T07:28:06;97280.75;;;0.54;98.55
58919;BME280;44704;50.122;19.932;2022-12-10T07:30:32;97282.92;;;0.55;98.61
58919;BME280;44704;50.122;19.932;2022-12-10T07:33:00;97291.94;;;0.58;98.61
58919;BME280;44704;50.122;19.932;2022-12-10T07:35:26;97296.06;;;0.58;98.31
58919;BME280;44704;50.122;19.932;2022-12-10T07:37:53;97297.25;;;0.60;98.40
58919;BME280;44704;50.122;19.932;2022-12-10T07:40:20;97294.15;;;0.63;98.57
58919;BME280;44704;50.122;19.932;2022-12-10T07:42:47;97290.15;;;0.65;98.43
58919;BME280;44704;50.122;19.932;2022-12-10T07:45:14;97293.61;;;0.66;98.02
58919;BME280;44704;50.122;19.932;2022-12-10T07:47:41;97297.16;;;0.64;97.92
58919;BME280;44704;50.122;19.932;2022-12-10T07:50:08;97299.38;;;0.65;97.92
58919;BME280;44704;50.122;19.932;2022-12-10T07:52:35;97296.37;;;0.64;97.79
58919;BME280;44704;50.122;19.932;2022-12-10T07:55:02;97295.92;;;0.64;97.94
58919;BME280;44704;50.122;19.932;2022-12-10T07:57:29;97291.23;;;0.65;97.67
58919;BME280;44704;50.122;19.932;2022-12-10T07:59:56;97282.60;;;0.67;97.95
58919;BME280;44704;50.122;19.932;2022-12-10T08:02:25;97281.47;;;0.71;97.95
58919;BME280;44704;50.122;19.932;2022-12-10T08:04:52;97282.66;;;0.72;97.81
58919;BME280;44704;50.122;19.932;2022-12-10T08:07:19;97282.81;;;0.77;97.82
58919;BME280;44704;50.122;19.932;2022-12-10T08:09:46;97282.08;;;0.78;97.48
58919;BME280;44704;50.122;19.932;2022-12-10T08:12:13;97283.83;;;0.83;97.85
58919;BME280;44704;50.122;19.932;2022-12-10T08:14:39;97281.02;;;0.91;97.95
58919;BME280;44704;50.122;19.932;2022-12-10T08:17:06;97282.73;;;0.95;97.69
58919;BME280;44704;50.122;19.932;2022-12-10T08:19:33;97292.34;;;0.99;97.16
58919;BME280;44704;50.122;19.932;2022-12-10T08:22:00;97291.67;;;1.02;97.35
58919;BME280;44704;50.122;19.932;2022-12-10T08:24:27;97293.44;;;1.04;97.05
58919;BME280;44704;50.122;19.932;2022-12-10T08:26:54;97296.73;;;1.05;96.74
58919;BME280;44704;50.122;19.932;2022-12-10T08:29:20;97304.84;;;1.06;96.74
58919;BME280;44704;50.122;19.932;2022-12-10T08:31:47;97308.77;;;1.07;96.96
58919;BME280;44704;50.122;19.932;2022-12-10T08:34:16;97315.21;;;1.12;97.33
58919;BME280;44704;50.122;19.932;2022-12-10T08:36:45;97323.65;;;1.18;97.29
58919;BME280;44704;50.122;19.932;2022-12-10T08:39:12;97321.29;;;1.20;96.81
58919;BME280;44704;50.122;19.932;2022-12-10T08:41:44;97319.92;;;1.20;96.38
58919;BME280;44704;50.122;19.932;2022-12-10T08:44:12;97314.40;;;1.21;96.14
58919;BME280;44704;50.122;19.932;2022-12-10T08:46:39;97314.02;;;1.22;96.14
58919;BME280;44704;50.122;19.932;2022-12-10T08:49:06;97311.59;;;1.28;96.35
58919;BME280;44704;50.122;19.932;2022-12-10T08:51:33;97311.91;;;1.32;96.34
58919;BME280;44704;50.122;19.932;2022-12-10T08:54:00;97309.55;;;1.34;95.98
58919;BME280;44704;50.122;19.932;2022-12-10T08:56:27;97310.23;;;1.36;95.79
58919;BME280;44704;50.122;19.932;2022-12-10T08:58:54;97308.31;;;1.39;96.21
58919;BME280;44704;50.122;19.932;2022-12-10T09:01:21;97305.98;;;1.43;96.02
58919;BME280;44704;50.122;19.932;2022-12-10T09:03:48;97309.94;;;1.45;95.59
58919;BME280;44704;50.122;19.932;2022-12-10T09:06:19;97306.86;;;1.48;95.60
58919;BME280;44704;50.122;19.932;2022-12-10T09:08:46;97302.08;;;1.49;95.22
58919;BME280;44704;50.122;19.932;2022-12-10T09:11:19;97300.82;;;1.50;95.15
58919;BME280;44704;50.122;19.932;2022-12-10T09:13:46;97301.43;;;1.54;95.07
58919;BME280;44704;50.122;19.932;2022-12-10T09:16:13;97304.58;;;1.58;94.96
58919;BME280;44704;50.122;19.932;2022-12-10T09:18:40;97299.13;;;1.64;95.19
58919;BME280;44704;50.122;19.932;2022-12-10T09:21:09;97303.33;;;1.73;95.72
58919;BME280;44704;50.122;19.932;2022-12-10T09:23:36;97308.02;;;1.81;95.29
58919;BME280;44704;50.122;19.932;2022-12-10T09:26:08;97309.45;;;1.83;94.61
58919;BME280;44704;50.122;19.932;2022-12-10T09:28:36;97303.06;;;1.86;94.52
58919;BME280;44704;50.122;19.932;2022-12-10T09:31:05;97295.90;;;1.93;94.54
58919;BME280;44704;50.122;19.932;2022-12-10T09:33:33;97293.77;;;1.98;94.14
58919;BME280;44704;50.122;19.932;2022-12-10T09:36:03;97293.83;;;2.00;93.53
58919;BME280;44704;50.122;19.932;2022-12-10T09:38:31;97290.93;;;1.96;93.10
58919;BME280;44704;50.122;19.932;2022-12-10T09:41:03;97285.41;;;2.00;93.75
58919;BME280;44704;50.122;19.932;2022-12-10T09:43:48;97283.60;;;2.08;93.90
58919;BME280;44704;50.122;19.932;2022-12-10T09:49:21;97276.48;;;2.32;94.20
58919;BME280;44704;50.122;19.932;2022-12-10T09:51:55;97280.71;;;2.48;93.96
58919;BME280;44704;50.122;19.932;2022-12-10T09:54:32;97283.35;;;2.57;93.19
58919;BME280;44704;50.122;19.932;2022-12-10T09:57:01;97285.52;;;2.60;92.29
58919;BME280;44704;50.122;19.932;2022-12-10T09:59:36;97284.96;;;2.57;91.39
58919;BME280;44704;50.122;19.932;2022-12-10T10:02:16;97288.36;;;2.57;92.10
58919;BME280;44704;50.122;19.932;2022-12-10T10:04:47;97288.04;;;2.57;91.34
58919;BME280;44704;50.122;19.932;2022-12-10T10:07:20;97287.70;;;2.53;91.18
58919;BME280;44704;50.122;19.932;2022-12-10T10:09:48;97294.02;;;2.51;91.07
58919;BME280;44704;50.122;19.932;2022-12-10T10:12:16;97294.42;;;2.50;90.99
58919;BME280;44704;50.122;19.932;2022-12-10T10:14:44;97286.70;;;2.46;90.97
58919;BME280;44704;50.122;19.932;2022-12-10T10:17:32;97286.23;;;2.44;91.28
58919;BME280;44704;50.122;19.932;2022-12-10T10:20:02;97295.48;;;2.42;90.67
58919;BME280;44704;50.122;19.932;2022-12-10T10:22:30;97291.89;;;2.37;90.48
58919;BME280;44704;50.122;19.932;2022-12-10T10:24:58;97286.67;;;2.35;90.89
58919;BME280;44704;50.122;19.932;2022-12-10T10:27:30;97284.48;;;2.35;90.86
58919;BME280;44704;50.122;19.932;2022-12-10T10:30:00;97286.55;;;2.37;91.01
58919;BME280;44704;50.122;19.932;2022-12-10T10:35:05;97282.13;;;2.34;90.88
58919;BME280;44704;50.122;19.932;2022-12-10T10:40:02;97271.64;;;2.42;91.36
58919;BME280;44704;50.122;19.932;2022-12-10T10:42:36;97271.77;;;2.49;90.87
58919;BME280;44704;50.122;19.932;2022-12-10T10:48:11;97265.31;;;2.59;90.70
58919;BME280;44704;50.122;19.932;2022-12-10T10:53:41;97266.89;;;2.80;90.20
58919;BME280;44704;50.122;19.932;2022-12-10T10:56:14;97275.59;;;2.82;89.71
58919;BME280;44704;50.122;19.932;2022-12-10T10:59:00;97283.92;;;2.78;88.99
58919;BME280;44704;50.122;19.932;2022-12-10T11:01:58;97287.08;;;2.68;88.83
58919;BME280;44704;50.122;19.932;2022-12-10T11:04:31;97290.15;;;2.56;88.79
58919;BME280;44704;50.122;19.932;2022-12-10T11:07:10;97290.09;;;2.50;89.34
58919;BME280;44704;50.122;19.932;2022-12-10T11:09:40;97286.61;;;2.45;89.38
58919;BME280;44704;50.122;19.932;2022-12-10T11:12:27;97290.54;;;2.42;89.41
58919;BME280;44704;50.122;19.932;2022-12-10T11:14:55;97290.98;;;2.37;89.34
58919;BME280;44704;50.122;19.932;2022-12-10T11:17:24;97292.27;;;2.32;89.28
58919;BME280;44704;50.122;19.932;2022-12-10T11:20:13;97291.99;;;2.28;89.31
58919;BME280;44704;50.122;19.932;2022-12-10T11:23:03;97282.59;;;2.22;89.38
58919;BME280;44704;50.122;19.932;2022-12-10T11:28:36;97292.36;;;2.18;89.83
58919;BME280;44704;50.122;19.932;2022-12-10T11:33:45;97292.45;;;2.08;89.86
58919;BME280;44704;50.122;19.932;2022-12-10T11:36:38;97293.80;;;2.00;89.47
58919;BME280;44704;50.122;19.932;2022-12-10T11:41:47;97287.73;;;1.82;90.05
58919;BME280;44704;50.122;19.932;2022-12-10T11:44:37;97293.19;;;1.77;90.06
58919;BME280;44704;50.122;19.932;2022-12-10T11:49:58;97288.86;;;1.69;90.40
58919;BME280;44704;50.122;19.932;2022-12-10T12:01:06;97288.60;;;1.52;91.09
58919;BME280;44704;50.122;19.932;2022-12-10T12:11:52;97287.84;;;1.42;91.46
58919;BME280;44704;50.122;19.932;2022-12-10T12:19:45;97287.23;;;1.32;91.83
58919;BME280;44704;50.122;19.932;2022-12-10T12:22:26;97284.80;;;1.46;94.05
58919;BME280;44704;50.122;19.932;2022-12-10T12:25:07;97283.96;;;1.55;92.66
58919;BME280;44704;50.122;19.932;2022-12-10T12:27:38;97281.83;;;1.55;92.16
58919;BME280;44704;50.122;19.932;2022-12-10T12:30:18;97283.89;;;1.53;91.86
58919;BME280;44704;50.122;19.932;2022-12-10T12:35:48;97279.23;;;1.39;91.75
58919;BME280;44704;50.122;19.932;2022-12-10T12:38:30;97275.23;;;1.35;91.89
58919;BME280;44704;50.122;19.932;2022-12-10T12:41:00;97268.77;;;1.29;91.86
58919;BME280;44704;50.122;19.932;2022-12-10T12:46:13;97265.23;;;1.13;92.14
58919;BME280;44704;50.122;19.932;2022-12-10T12:49:00;97260.04;;;1.08;92.46
58919;BME280;44704;50.122;19.932;2022-12-10T12:51:48;97267.02;;;1.05;92.81
58919;BME280;44704;50.122;19.932;2022-12-10T12:54:16;97273.55;;;1.02;92.71
58919;BME280;44704;50.122;19.932;2022-12-10T12:56:51;97280.95;;;0.98;92.86
58919;BME280;44704;50.122;19.932;2022-12-10T12:59:47;97287.13;;;0.93;93.05
58919;BME280;44704;50.122;19.932;2022-12-10T13:02:39;97295.05;;;0.89;93.12
58919;BME280;44704;50.122;19.932;2022-12-10T13:05:18;97295.23;;;0.85;93.43
58919;BME280;44704;50.122;19.932;2022-12-10T13:10:53;97279.86;;;0.84;94.07
58919;BME280;44704;50.122;19.932;2022-12-10T13:13:28;97276.94;;;0.84;94.18
58919;BME280;44704;50.122;19.932;2022-12-10T13:15:56;97275.91;;;0.87;94.12
58919;BME280;44704;50.122;19.932;2022-12-10T13:18:43;97277.35;;;0.84;93.97
58919;BME280;44704;50.122;19.932;2022-12-10T13:21:24;97282.18;;;0.80;93.95
58919;BME280;44704;50.122;19.932;2022-12-10T13:23:54;97289.87;;;0.76;94.10
58919;BME280;44704;50.122;19.932;2022-12-10T13:26:31;97292.56;;;0.73;94.33
58919;BME280;44704;50.122;19.932;2022-12-10T13:31:40;97303.94;;;0.72;94.81
58919;BME280;44704;50.122;19.932;2022-12-10T13:34:31;97308.63;;;0.72;94.73
58919;BME280;44704;50.122;19.932;2022-12-10T13:39:34;97318.87;;;0.70;94.61
58919;BME280;44704;50.122;19.932;2022-12-10T13:45:01;97318.54;;;0.67;95.10
58919;BME280;44704;50.122;19.932;2022-12-10T13:50:45;97317.33;;;0.67;95.25
58919;BME280;44704;50.122;19.932;2022-12-10T13:56:01;97326.26;;;0.66;95.32
58919;BME280;44704;50.122;19.932;2022-12-10T13:58:45;97317.39;;;0.65;95.30
58919;BME280;44704;50.122;19.932;2022-12-10T14:07:11;97330.48;;;0.57;95.25
58919;BME280;44704;50.122;19.932;2022-12-10T14:09:51;97335.59;;;0.53;95.33
58919;BME280;44704;50.122;19.932;2022-12-10T14:12:46;97338.77;;;0.51;95.68
58919;BME280;44704;50.122;19.932;2022-12-10T14:15:26;97338.94;;;0.50;95.86
58919;BME280;44704;50.122;19.932;2022-12-10T14:18:07;97345.45;;;0.48;95.89
58919;BME280;44704;50.122;19.932;2022-12-10T14:20:39;97348.66;;;0.44;95.80
58919;BME280;44704;50.122;19.932;2022-12-10T14:23:29;97343.39;;;0.44;96.07
58919;BME280;44704;50.122;19.932;2022-12-10T14:26:22;97344.91;;;0.42;96.17
58919;BME280;44704;50.122;19.932;2022-12-10T14:29:21;97342.20;;;0.41;96.54
58919;BME280;44704;50.122;19.932;2022-12-10T14:31:49;97334.38;;;0.40;96.61
58919;BME280;44704;50.122;19.932;2022-12-10T14:34:19;97332.23;;;0.37;96.35
58919;BME280;44704;50.122;19.932;2022-12-10T14:36:50;97331.13;;;0.35;96.57
58919;BME280;44704;50.122;19.932;2022-12-10T14:39:21;97334.10;;;0.34;96.63
58919;BME280;44704;50.122;19.932;2022-12-10T14:41:50;97332.69;;;0.33;96.62
58919;BME280;44704;50.122;19.932;2022-12-10T14:44:18;97332.65;;;0.32;96.65
58919;BME280;44704;50.122;19.932;2022-12-10T14:46:49;97325.36;;;0.30;96.63
58919;BME280;44704;50.122;19.932;2022-12-10T14:49:22;97322.23;;;0.28;96.55